createdAt,value
2022-12-24T00:00:56.732Z,100572.50
2022-12-24T00:03:58.282Z,100576.31
2022-12-24T00:06:59.806Z,100582.25
2022-12-24T00:10:01.330Z,100587.66
2022-12-24T00:13:02.901Z,100591.31
2022-12-24T00:16:04.834Z,100589.78
2022-12-24T00:19:06.615Z,100599.53
2022-12-24T00:22:08.102Z,100601.59
2022-12-24T00:25:09.799Z,100600.56
2022-12-24T00:28:12.087Z,100604.06
2022-12-24T00:31:16.713Z,100602.63
2022-12-24T00:34:18.274Z,100599.25
2022-12-24T00:37:19.717Z,100605.50
2022-12-24T00:40:21.296Z,100619.00
2022-12-24T00:43:22.822Z,100619.00
2022-12-24T00:46:25.795Z,100619.94
2022-12-24T00:49:27.360Z,100633.16
2022-12-24T00:52:28.894Z,100637.53
2022-12-24T00:55:30.309Z,100647.19
2022-12-24T00:58:31.737Z,100642.81
2022-12-24T01:01:33.361Z,100653.38
2022-12-24T01:04:35.043Z,100654.41
2022-12-24T01:07:41.043Z,100671.94
2022-12-24T01:10:42.485Z,100668.34
2022-12-24T01:13:43.966Z,100671.84
2022-12-24T01:16:45.428Z,100663.94
2022-12-24T01:19:46.969Z,100673.69
2022-12-24T01:22:48.414Z,100677.16
2022-12-24T01:25:49.988Z,100684.03
2022-12-24T01:28:51.479Z,100676.34
2022-12-24T01:31:53.024Z,100689.47
2022-12-24T01:34:54.551Z,100687.00
2022-12-24T01:37:55.977Z,100693.94
2022-12-24T01:40:57.521Z,100707.91
2022-12-24T01:43:59.041Z,100714.06
2022-12-24T01:47:08.078Z,100715.22
2022-12-24T01:50:17.074Z,100716.06
2022-12-24T01:53:18.875Z,100717.84
2022-12-24T01:56:21.169Z,100715.03
2022-12-24T01:59:22.843Z,100726.41
2022-12-24T02:02:25.471Z,100731.63
2022-12-24T02:05:36.633Z,100743.84
2022-12-24T02:08:38.468Z,100747.38
2022-12-24T02:11:41.621Z,100749.97
2022-12-24T02:14:43.323Z,100756.25
2022-12-24T02:17:57.058Z,100754.59
2022-12-24T02:21:32.686Z,100765.03
2022-12-24T02:25:02.632Z,100752.75
2022-12-24T02:28:21.065Z,100753.59
2022-12-24T02:31:43.712Z,100753.47
2022-12-24T02:35:05.850Z,100753.41
2022-12-24T02:38:16.184Z,100762.16
2022-12-24T02:41:25.357Z,100762.91
2022-12-24T02:44:30.113Z,100764.66
2022-12-24T02:47:34.053Z,100758.41
2022-12-24T02:50:35.971Z,100761.81
2022-12-24T02:53:38.297Z,100768.59
2022-12-24T02:56:59.787Z,100773.81
2022-12-24T03:00:10.542Z,100769.22
2022-12-24T03:03:42.327Z,100770.84
2022-12-24T03:06:57.827Z,100776.09
2022-12-24T03:10:08.315Z,100768.13
2022-12-24T03:13:15.017Z,100772.66
2022-12-24T03:16:22.978Z,100779.66
2022-12-24T03:19:26.411Z,100785.63
2022-12-24T03:22:28.281Z,100792.59
2022-12-24T03:25:32.187Z,100797.66
2022-12-24T03:28:35.044Z,100797.50
2022-12-24T03:31:47.983Z,100798.44
2022-12-24T03:34:49.510Z,100800.13
2022-12-24T03:37:51.266Z,100803.47
2022-12-24T03:40:53.189Z,100802.47
2022-12-24T03:43:54.630Z,100794.50
2022-12-24T03:46:56.130Z,100794.56
2022-12-24T03:49:57.608Z,100802.34
2022-12-24T03:52:59.133Z,100800.56
2022-12-24T03:56:00.643Z,100798.69
2022-12-24T03:59:02.143Z,100807.47
2022-12-24T04:02:03.839Z,100811.97
2022-12-24T04:05:06.519Z,100817.13
2022-12-24T04:08:07.973Z,100816.25
2022-12-24T04:11:15.945Z,100805.69
2022-12-24T04:14:17.437Z,100807.41
2022-12-24T04:17:18.958Z,100820.59
2022-12-24T04:20:20.401Z,100818.03
2022-12-24T04:23:21.893Z,100817.09
2022-12-24T04:26:23.388Z,100819.72
2022-12-24T04:29:25.031Z,100825.00
2022-12-24T04:32:27.254Z,100834.66
2022-12-24T04:35:28.752Z,100834.59
2022-12-24T04:38:30.826Z,100827.66
2022-12-24T04:41:32.537Z,100837.38
2022-12-24T04:44:33.976Z,100835.63
2022-12-24T04:47:35.530Z,100840.03
2022-12-24T04:50:37.006Z,100843.50
2022-12-24T04:53:39.568Z,100856.66
2022-12-24T04:56:41.016Z,100847.84
2022-12-24T04:59:42.449Z,100852.25
2022-12-24T05:02:44.260Z,100852.97
2022-12-24T05:05:46.190Z,100853.84
2022-12-24T05:08:47.997Z,100856.56
2022-12-24T05:11:49.530Z,100851.09
2022-12-24T05:14:51.086Z,100856.38
2022-12-24T05:17:52.567Z,100858.94
2022-12-24T05:20:54.062Z,100859.00
2022-12-24T05:23:55.518Z,100853.03
2022-12-24T05:26:58.684Z,100868.03
2022-12-24T05:30:00.228Z,100865.38
2022-12-24T05:33:01.704Z,100862.75
2022-12-24T05:36:03.381Z,100857.59
2022-12-24T05:39:09.776Z,100849.66
2022-12-24T05:42:15.125Z,100856.78
2022-12-24T05:45:16.957Z,100862.00
2022-12-24T05:48:18.464Z,100862.84
2022-12-24T05:51:21.637Z,100864.59
2022-12-24T05:54:23.086Z,100875.16
2022-12-24T05:57:24.578Z,100884.06
2022-12-24T06:00:26.231Z,100889.41
2022-12-24T06:03:28.135Z,100891.09
2022-12-24T06:06:29.582Z,100909.53
2022-12-24T06:09:31.179Z,100910.34
2022-12-24T06:12:32.679Z,100898.13
2022-12-24T06:15:36.056Z,100903.50
2022-12-24T06:18:37.710Z,100912.34
2022-12-24T06:21:39.167Z,100916.97
2022-12-24T06:24:40.707Z,100938.75
2022-12-24T06:27:42.313Z,100936.84
2022-12-24T06:30:49.397Z,100928.84
2022-12-24T06:33:52.265Z,100934.84
2022-12-24T06:36:53.772Z,100933.09
2022-12-24T06:39:55.228Z,100933.97
2022-12-24T06:42:56.727Z,100938.38
2022-12-24T06:45:58.215Z,100930.59
2022-12-24T06:48:59.682Z,100922.63
2022-12-24T06:52:01.160Z,100917.38
2022-12-24T06:55:02.833Z,100920.03
2022-12-24T06:58:04.516Z,100927.16
2022-12-24T07:01:07.823Z,100940.41
2022-12-24T07:04:12.083Z,100936.00
2022-12-24T07:07:17.781Z,100938.81
2022-12-24T07:10:20.217Z,100950.47
2022-12-24T07:13:21.799Z,100953.13
2022-12-24T07:16:23.590Z,100946.22
2022-12-24T07:19:25.348Z,100951.56
2022-12-24T07:22:26.858Z,100964.72
2022-12-24T07:25:28.311Z,100971.69
2022-12-24T07:28:30.097Z,100977.72
2022-12-24T07:31:31.664Z,100982.78
2022-12-24T07:34:33.218Z,100981.91
2022-12-24T07:37:34.819Z,100993.44
2022-12-24T07:40:36.291Z,100991.75
2022-12-24T07:43:38.014Z,101004.84
2022-12-24T07:46:40.288Z,101009.25
2022-12-24T07:49:41.936Z,101022.31
2022-12-24T07:52:43.397Z,101020.59
2022-12-24T07:55:45.516Z,101024.91
2022-12-24T07:58:47.038Z,101035.34
2022-12-24T08:01:48.602Z,101037.13
2022-12-24T08:04:50.269Z,101034.41
2022-12-24T08:07:51.730Z,101055.41
2022-12-24T08:10:53.459Z,101056.34
2022-12-24T08:13:54.937Z,101059.09
2022-12-24T08:16:56.489Z,101063.47
2022-12-24T08:19:58.201Z,101061.53
2022-12-24T08:22:59.734Z,101068.47
2022-12-24T08:26:01.431Z,101075.44
2022-12-24T08:29:04.716Z,101073.63
2022-12-24T08:32:06.235Z,101077.94
2022-12-24T08:35:08.044Z,101080.47
2022-12-24T08:38:09.512Z,101097.03
2022-12-24T08:41:11.265Z,101095.13
2022-12-24T08:44:12.742Z,101098.47
2022-12-24T08:47:14.316Z,101103.63
2022-12-24T08:50:15.881Z,101113.16
2022-12-24T08:53:17.404Z,101114.88
2022-12-24T08:56:18.983Z,101125.38
2022-12-24T08:59:20.434Z,101133.84
2022-12-24T09:02:22.248Z,101139.03
2022-12-24T09:05:24.147Z,101137.19
2022-12-24T09:08:25.641Z,101141.63
2022-12-24T09:11:27.431Z,101138.97
2022-12-24T09:14:28.925Z,101156.56
2022-12-24T09:17:31.825Z,101155.56
2022-12-24T09:20:33.334Z,101164.28
2022-12-24T09:23:36.776Z,101157.28
2022-12-24T09:26:41.103Z,101167.59
2022-12-24T09:29:42.663Z,101164.97
2022-12-24T09:32:44.163Z,101175.56
2022-12-24T09:35:45.585Z,101173.00
2022-12-24T09:38:47.832Z,101179.19
2022-12-24T09:42:07.208Z,101182.59
2022-12-24T09:45:48.352Z,101171.97
2022-12-24T09:48:55.623Z,101184.31
2022-12-24T09:52:05.005Z,101184.16
2022-12-24T09:55:12.266Z,101190.19
2022-12-24T09:58:40.473Z,101185.78
2022-12-24T10:01:42.215Z,101191.09
2022-12-24T10:04:45.414Z,101195.59
2022-12-24T10:07:58.913Z,101202.72
2022-12-24T10:11:23.464Z,101197.22
2022-12-24T10:14:51.898Z,101207.72
2022-12-24T10:18:22.903Z,101205.03
2022-12-24T10:21:49.817Z,101203.94
2022-12-24T10:25:12.851Z,101212.66
2022-12-24T10:28:18.547Z,101208.88
2022-12-24T10:31:25.686Z,101211.41
2022-12-24T10:34:32.593Z,101216.41
2022-12-24T10:37:34.164Z,101222.66
2022-12-24T10:40:47.860Z,101216.81
2022-12-24T10:43:49.551Z,101213.59
2022-12-24T10:46:51.132Z,101216.34
2022-12-24T10:50:05.117Z,101213.97
2022-12-24T10:53:38.898Z,101229.75
2022-12-24T10:56:43.428Z,101230.41
2022-12-24T10:59:54.568Z,101240.03
2022-12-24T11:03:17.927Z,101233.13
2022-12-24T11:06:19.386Z,101230.56
2022-12-24T11:09:35.576Z,101236.75
2022-12-24T11:12:55.705Z,101235.94
2022-12-24T11:16:21.504Z,101230.78
2022-12-24T11:19:28.792Z,101229.81
2022-12-24T11:22:32.389Z,101230.75
2022-12-24T11:25:39.151Z,101237.72
2022-12-24T11:28:40.641Z,101232.38
2022-12-24T11:31:44.836Z,101241.09
2022-12-24T11:34:46.444Z,101251.53
2022-12-24T11:38:07.864Z,101248.91
2022-12-24T11:41:12.601Z,101253.47
2022-12-24T11:44:14.365Z,101251.72
2022-12-24T11:47:15.816Z,101249.13
2022-12-24T11:50:30.580Z,101261.38
2022-12-24T11:53:47.172Z,101254.25
2022-12-24T11:56:53.187Z,101251.41
2022-12-24T11:59:54.730Z,101246.78
2022-12-24T12:02:59.460Z,101244.97
2022-12-24T12:06:06.940Z,101252.94
2022-12-24T12:09:20.742Z,101251.97
2022-12-24T12:12:26.341Z,101262.25
2022-12-24T12:15:46.870Z,101267.75
2022-12-24T12:19:00.138Z,101263.63
2022-12-24T12:22:07.033Z,101265.41
2022-12-24T12:25:20.953Z,101266.25
2022-12-24T12:28:38.546Z,101266.38
2022-12-24T12:31:45.385Z,101259.38
2022-12-24T12:35:23.172Z,101270.75
2022-12-24T12:38:27.479Z,101278.66
2022-12-24T12:41:47.149Z,101286.34
2022-12-24T12:44:57.356Z,101281.97
2022-12-24T12:48:05.012Z,101289.06
2022-12-24T12:51:19.956Z,101297.88
2022-12-24T12:54:48.403Z,101313.75
2022-12-24T12:57:54.155Z,101309.22
2022-12-24T13:01:01.843Z,101305.78
2022-12-24T13:04:42.142Z,101304.03
2022-12-24T13:08:11.691Z,101308.44
2022-12-24T13:11:36.868Z,101295.81
2022-12-24T13:15:08.624Z,101293.56
2022-12-24T13:18:30.954Z,101303.91
2022-12-24T13:21:33.640Z,101316.72
2022-12-24T13:24:35.100Z,101324.69
2022-12-24T13:27:36.616Z,101328.25
2022-12-24T13:30:40.553Z,101331.03
2022-12-24T13:33:41.979Z,101335.50
2022-12-24T13:37:04.963Z,101330.19
2022-12-24T13:40:06.448Z,101333.50
2022-12-24T13:43:08.769Z,101330.97
2022-12-24T13:46:10.337Z,101327.63
2022-12-24T13:49:27.903Z,101333.84
2022-12-24T13:52:30.654Z,101332.81
2022-12-24T13:55:33.171Z,101332.78
2022-12-24T13:58:37.786Z,101331.91
2022-12-24T14:01:41.783Z,101342.25
2022-12-24T14:04:43.329Z,101339.44
2022-12-24T14:07:48.936Z,101347.47
2022-12-24T14:11:25.861Z,101346.69
2022-12-24T14:14:30.654Z,101340.38
2022-12-24T14:17:32.356Z,101349.06
2022-12-24T14:20:34.102Z,101343.88
2022-12-24T14:23:49.327Z,101349.41
2022-12-24T14:27:24.719Z,101354.72
2022-12-24T14:30:28.476Z,101338.22
2022-12-24T14:33:34.913Z,101354.97
2022-12-24T14:36:36.621Z,101357.69
2022-12-24T14:39:49.034Z,101361.28
2022-12-24T14:43:25.947Z,101358.97
2022-12-24T14:46:53.756Z,101363.44
2022-12-24T14:50:25.804Z,101357.56
2022-12-24T14:54:05.945Z,101371.78
2022-12-24T14:57:10.434Z,101376.53
2022-12-24T15:00:21.158Z,101384.50
2022-12-24T15:03:26.064Z,101390.78
2022-12-24T15:06:28.939Z,101388.28
2022-12-24T15:09:31.889Z,101393.69
2022-12-24T15:12:33.386Z,101392.03
2022-12-24T15:15:35.663Z,101391.28
2022-12-24T15:18:43.261Z,101392.22
2022-12-24T15:21:44.985Z,101399.31
2022-12-24T15:24:47.583Z,101399.41
2022-12-24T15:27:49.173Z,101402.97
2022-12-24T15:31:08.284Z,101417.09
2022-12-24T15:34:49.630Z,101415.41
2022-12-24T15:37:51.155Z,101425.09
2022-12-24T15:40:54.227Z,101420.72
2022-12-24T15:44:02.324Z,101433.09
2022-12-24T15:47:07.223Z,101448.84
2022-12-24T15:50:19.348Z,101442.75
2022-12-24T15:53:25.831Z,101438.41
2022-12-24T15:56:32.453Z,101448.03
2022-12-24T15:59:35.206Z,101432.31
2022-12-24T16:02:43.967Z,101440.19
2022-12-24T16:05:45.750Z,101448.09
2022-12-24T16:08:47.659Z,101434.13
2022-12-24T16:11:49.219Z,101440.25
2022-12-24T16:15:00.606Z,101440.25
2022-12-24T16:18:02.266Z,101445.53
2022-12-24T16:21:06.491Z,101442.94
2022-12-24T16:24:14.772Z,101448.22
2022-12-24T16:27:16.232Z,101449.09
2022-12-24T16:30:19.045Z,101452.59
2022-12-24T16:33:21.022Z,101450.84
2022-12-24T16:36:22.488Z,101451.72
2022-12-24T16:39:30.629Z,101450.88
2022-12-24T16:42:32.049Z,101442.97
2022-12-24T16:45:36.230Z,101443.81
2022-12-24T16:48:37.851Z,101444.69
2022-12-24T16:51:39.356Z,101445.56
2022-12-24T16:54:40.824Z,101441.19
2022-12-24T16:57:43.173Z,101436.81
2022-12-24T17:00:44.931Z,101447.31
2022-12-24T17:03:46.464Z,101442.94
2022-12-24T17:06:49.311Z,101452.53
2022-12-24T17:09:50.948Z,101446.41
2022-12-24T17:12:52.479Z,101449.91
2022-12-24T17:15:53.965Z,101443.78
2022-12-24T17:18:55.837Z,101442.91
2022-12-24T17:21:57.360Z,101447.25
2022-12-24T17:24:58.831Z,101450.72
2022-12-24T17:28:00.283Z,101440.25
2022-12-24T17:31:07.389Z,101435.84
2022-12-24T17:34:09.477Z,101437.56
2022-12-24T17:37:10.996Z,101430.63
2022-12-24T17:40:12.678Z,101436.72
2022-12-24T17:43:14.138Z,101441.16
2022-12-24T17:46:18.298Z,101435.91
2022-12-24T17:49:19.711Z,101435.91
2022-12-24T17:52:21.187Z,101431.53
2022-12-24T17:55:22.659Z,101438.53
2022-12-24T17:58:24.120Z,101434.16
2022-12-24T18:01:28.114Z,101440.31
2022-12-24T18:04:29.653Z,101440.31
2022-12-24T18:07:31.332Z,101432.44
2022-12-24T18:10:32.895Z,101434.19
2022-12-24T18:13:34.494Z,101431.56
2022-12-24T18:16:38.442Z,101439.41
2022-12-24T18:19:39.974Z,101435.03
2022-12-24T18:22:41.422Z,101442.06
2022-12-24T18:25:42.946Z,101442.03
2022-12-24T18:28:45.318Z,101442.03
2022-12-24T18:31:46.921Z,101436.84
2022-12-24T18:34:51.246Z,101435.94
2022-12-24T18:37:52.634Z,101436.81
2022-12-24T18:40:54.250Z,101449.00
2022-12-24T18:43:56.795Z,101453.38
2022-12-24T18:46:58.370Z,101443.78
2022-12-24T18:49:59.841Z,101442.00
2022-12-24T18:53:01.469Z,101445.53
2022-12-24T18:56:12.986Z,101451.59
2022-12-24T18:59:14.506Z,101453.34
2022-12-24T19:02:16.149Z,101454.22
2022-12-24T19:05:17.760Z,101447.25
2022-12-24T19:11:41.797Z,101447.25
2022-12-24T19:14:43.271Z,101456.03
2022-12-24T19:17:44.828Z,101457.72
2022-12-24T19:20:46.319Z,101456.88
2022-12-24T19:23:48.072Z,101458.63
2022-12-24T19:26:49.568Z,101456.00
2022-12-24T19:29:51.039Z,101454.28
2022-12-24T19:32:52.566Z,101449.91
2022-12-24T19:35:54.015Z,101464.78
2022-12-24T19:38:56.559Z,101447.28
2022-12-24T19:41:58.064Z,101448.16
2022-12-24T19:44:59.596Z,101459.53
2022-12-24T19:48:01.094Z,101464.78
2022-12-24T19:51:04.023Z,101454.31
2022-12-24T19:54:06.285Z,101466.53
2022-12-24T19:57:08.535Z,101470.00
2022-12-24T20:00:10.999Z,101465.63
2022-12-24T20:03:15.414Z,101451.66
2022-12-24T20:06:19.141Z,101452.50
2022-12-24T20:09:20.873Z,101457.72
2022-12-24T20:12:22.402Z,101453.38
2022-12-24T20:15:23.973Z,101453.38
2022-12-24T20:18:25.418Z,101456.00
2022-12-24T20:21:27.748Z,101455.94
2022-12-24T20:24:29.229Z,101445.47
2022-12-24T20:27:30.753Z,101436.75
2022-12-24T20:30:36.266Z,101441.09
2022-12-24T20:33:37.858Z,101440.22
2022-12-24T20:36:40.483Z,101441.97
2022-12-24T20:39:42.003Z,101430.66
2022-12-24T20:42:43.648Z,101422.78
2022-12-24T20:45:49.741Z,101424.53
2022-12-24T20:48:52.004Z,101420.19
2022-12-24T20:51:53.453Z,101424.47
2022-12-24T20:54:54.896Z,101426.25
2022-12-24T20:57:56.407Z,101427.97
2022-12-24T21:00:57.887Z,101424.44
2022-12-24T21:04:00.361Z,101427.91
2022-12-24T21:07:01.900Z,101433.94
2022-12-24T21:10:03.639Z,101439.16
2022-12-24T21:13:05.510Z,101432.19
2022-12-24T21:16:07.204Z,101422.59
2022-12-24T21:19:11.915Z,101422.63
2022-12-24T21:22:13.443Z,101417.34
2022-12-24T21:25:14.949Z,101420.88
2022-12-24T21:28:16.663Z,101424.34
2022-12-24T21:31:18.595Z,101423.53
2022-12-24T21:34:20.147Z,101421.78
2022-12-24T21:37:21.665Z,101420.97
2022-12-24T21:40:23.151Z,101412.19
2022-12-24T21:43:24.652Z,101404.38
2022-12-24T21:46:26.447Z,101398.31
2022-12-24T21:49:28.076Z,101395.69
2022-12-24T21:52:29.558Z,101397.41
2022-12-24T21:55:31.062Z,101398.28
2022-12-24T21:58:32.583Z,101410.44
2022-12-24T22:01:34.182Z,101409.53
2022-12-24T22:04:35.859Z,101401.75
2022-12-24T22:07:37.644Z,101401.75
2022-12-24T22:10:39.830Z,101392.16
2022-12-24T22:13:41.398Z,101396.41
2022-12-24T22:16:42.948Z,101394.69
2022-12-24T22:19:44.455Z,101403.38
2022-12-24T22:22:47.277Z,101412.16
2022-12-24T22:25:48.828Z,101405.16
2022-12-24T22:28:50.337Z,101411.34
2022-12-24T22:31:51.968Z,101412.25
2022-12-24T22:34:53.374Z,101414.03
2022-12-24T22:37:59.975Z,101408.81
2022-12-24T22:41:09.546Z,101419.25
2022-12-24T22:44:10.985Z,101418.38
2022-12-24T22:47:12.516Z,101428.03
2022-12-24T22:50:13.997Z,101422.78
2022-12-24T22:53:15.500Z,101432.41
2022-12-24T22:56:21.835Z,101434.16
2022-12-24T22:59:23.556Z,101445.53
2022-12-24T23:02:28.413Z,101441.16
2022-12-24T23:05:30.665Z,101438.53
2022-12-24T23:08:34.016Z,101433.31
2022-12-24T23:11:35.663Z,101428.94
2022-12-24T23:14:37.105Z,101425.47
2022-12-24T23:17:38.557Z,101435.09
2022-12-24T23:20:42.109Z,101431.59
2022-12-24T23:23:43.666Z,101435.09
2022-12-24T23:26:45.148Z,101445.59
2022-12-24T23:29:46.572Z,101440.34
2022-12-24T23:32:48.047Z,101435.13
2022-12-24T23:35:49.521Z,101426.38
2022-12-24T23:38:53.393Z,101426.41
2022-12-24T23:41:55.008Z,101408.06
2022-12-24T23:44:56.488Z,101409.75
2022-12-24T23:47:58.010Z,101419.34
2022-12-24T23:51:12.892Z,101415.88
2022-12-24T23:54:14.378Z,101409.78
2022-12-24T23:57:15.837Z,101402.81
